createdAt,value
2022-12-29T00:02:28.262Z,3.03
2022-12-29T00:07:29.357Z,3.30
2022-12-29T00:15:37.058Z,3.33
2022-12-29T00:20:56.826Z,2.30
2022-12-29T00:26:15.977Z,3.40
2022-12-29T00:31:35.762Z,3.15
2022-12-29T00:36:40.842Z,2.62
2022-12-29T00:41:59.833Z,2.97
2022-12-29T00:47:04.532Z,2.60
2022-12-29T00:52:08.947Z,2.65
2022-12-29T01:02:10.836Z,2.47
2022-12-29T01:07:11.882Z,3.87
2022-12-29T01:12:13.160Z,4.43
2022-12-29T01:17:15.458Z,2.55
2022-12-29T01:22:16.215Z,2.85
2022-12-29T01:27:18.768Z,2.70
2022-12-29T01:32:19.624Z,2.75
2022-12-29T01:37:20.532Z,2.30
2022-12-29T01:42:25.960Z,2.60
2022-12-29T01:48:13.002Z,1.95
2022-12-29T01:53:19.220Z,3.03
2022-12-29T01:58:24.680Z,2.42
2022-12-29T02:03:27.608Z,2.60
2022-12-29T02:08:29.952Z,2.22
2022-12-29T02:13:30.859Z,2.60
2022-12-29T02:25:39.721Z,2.65
2022-12-29T02:31:32.139Z,2.40
2022-12-29T02:36:59.208Z,2.92
2022-12-29T02:43:48.893Z,2.80
2022-12-29T02:49:46.532Z,3.10
2022-12-29T02:54:49.191Z,3.10
2022-12-29T02:59:54.743Z,1.98
2022-12-29T03:05:34.063Z,2.50
2022-12-29T03:12:07.800Z,1.70
2022-12-29T03:17:24.389Z,2.05
2022-12-29T03:22:32.613Z,1.70
2022-12-29T03:27:49.713Z,1.58
2022-12-29T03:32:54.485Z,1.65
2022-12-29T03:38:11.649Z,1.73
2022-12-29T03:43:13.270Z,2.12
2022-12-29T03:48:15.677Z,1.70
2022-12-29T03:53:18.326Z,2.03
2022-12-29T03:58:20.425Z,2.03
2022-12-29T04:03:31.242Z,1.80
2022-12-29T04:08:32.063Z,2.28
2022-12-29T04:13:32.992Z,1.60
2022-12-29T04:18:34.740Z,1.92
2022-12-29T04:23:37.884Z,1.85
2022-12-29T04:28:41.241Z,2.10
2022-12-29T04:33:50.543Z,1.70
2022-12-29T04:38:51.522Z,1.90
2022-12-29T04:43:52.531Z,2.20
2022-12-29T04:49:28.806Z,2.08
2022-12-29T04:55:04.534Z,1.90
2022-12-29T05:00:06.602Z,1.67
2022-12-29T05:05:10.437Z,2.05
2022-12-29T05:10:15.762Z,1.85
2022-12-29T05:15:17.682Z,2.12
2022-12-29T05:20:20.038Z,2.17
2022-12-29T05:25:21.118Z,2.00
2022-12-29T05:30:42.823Z,2.08
2022-12-29T05:35:43.816Z,2.20
2022-12-29T05:40:45.011Z,2.20
2022-12-29T05:45:57.847Z,2.30
2022-12-29T05:51:19.097Z,2.10
2022-12-29T05:56:25.515Z,2.00
2022-12-29T06:01:31.102Z,2.12
2022-12-29T06:06:32.084Z,1.90
2022-12-29T06:11:33.023Z,1.48
2022-12-29T06:16:35.037Z,1.70
2022-12-29T06:21:39.786Z,1.85
2022-12-29T06:26:40.842Z,1.80
2022-12-29T06:31:41.935Z,1.50
2022-12-29T06:36:42.804Z,1.75
2022-12-29T06:41:43.630Z,1.83
2022-12-29T06:47:09.925Z,1.80
2022-12-29T06:52:13.207Z,2.90
2022-12-29T06:57:14.350Z,2.30
2022-12-29T07:02:17.152Z,2.25
2022-12-29T07:07:19.707Z,2.85
2022-12-29T07:12:20.523Z,2.27
2022-12-29T07:17:21.384Z,2.00
2022-12-29T07:22:22.467Z,2.12
2022-12-29T07:27:23.208Z,2.47
2022-12-29T07:32:24.344Z,2.20
2022-12-29T07:37:25.228Z,2.10
2022-12-29T07:42:26.035Z,1.87
2022-12-29T07:47:27.462Z,2.60
2022-12-29T07:52:28.334Z,2.42
2022-12-29T07:57:32.154Z,2.33
2022-12-29T08:02:33.511Z,3.00
2022-12-29T08:07:34.782Z,2.92
2022-12-29T08:12:35.812Z,2.72
2022-12-29T08:17:36.835Z,3.12
2022-12-29T08:22:37.815Z,2.85
2022-12-29T08:27:38.553Z,2.67
2022-12-29T08:32:39.668Z,2.85
2022-12-29T08:37:40.527Z,3.03
2022-12-29T08:42:41.763Z,2.55
2022-12-29T08:47:43.016Z,1.90
2022-12-29T08:52:43.909Z,2.95
2022-12-29T08:57:44.652Z,1.98
2022-12-29T09:02:51.929Z,1.35
2022-12-29T09:07:52.834Z,0.93
2022-12-29T09:12:53.659Z,0.57
2022-12-29T09:17:55.460Z,0.70
2022-12-29T09:22:56.459Z,0.70
2022-12-29T09:27:57.232Z,1.17
2022-12-29T09:32:58.103Z,0.90
2022-12-29T09:37:59.183Z,0.65
2022-12-29T09:45:13.730Z,0.95
2022-12-29T09:50:29.657Z,0.65
2022-12-29T09:55:45.222Z,1.30
2022-12-29T10:07:43.003Z,0.52
2022-12-29T10:14:42.285Z,0.40
2022-12-29T10:20:11.141Z,0.68
2022-12-29T10:25:28.446Z,0.70
2022-12-29T10:30:34.920Z,0.47
2022-12-29T10:35:39.342Z,0.40
2022-12-29T10:40:49.746Z,0.75
2022-12-29T10:45:53.703Z,0.93
2022-12-29T10:51:01.695Z,0.60
2022-12-29T10:56:14.200Z,0.90
2022-12-29T11:01:15.387Z,0.70
2022-12-29T11:06:24.641Z,0.70
2022-12-29T11:11:32.514Z,0.43
2022-12-29T11:16:34.770Z,0.77
2022-12-29T11:21:42.307Z,0.67
2022-12-29T11:26:44.053Z,0.60
2022-12-29T11:31:50.758Z,0.80
2022-12-29T11:36:59.237Z,0.90
2022-12-29T11:42:02.717Z,1.02
2022-12-29T11:47:05.534Z,0.70
2022-12-29T11:52:07.201Z,0.70
2022-12-29T11:57:18.674Z,0.50
2022-12-29T12:02:43.622Z,0.85
2022-12-29T12:07:49.604Z,1.05
2022-12-29T12:13:04.297Z,0.70
2022-12-29T12:18:12.186Z,1.00
2022-12-29T12:24:59.305Z,0.73
2022-12-29T12:30:05.298Z,0.73
2022-12-29T12:35:16.807Z,0.80
2022-12-29T12:40:59.891Z,1.00
2022-12-29T12:47:19.017Z,1.00
2022-12-29T12:53:36.448Z,1.00
2022-12-29T12:59:42.663Z,0.85
2022-12-29T13:07:28.740Z,0.70
2022-12-29T13:13:05.098Z,0.65
2022-12-29T13:18:35.794Z,1.48
2022-12-29T13:24:02.866Z,0.90
2022-12-29T13:29:18.332Z,0.70
2022-12-29T13:34:52.081Z,0.80
2022-12-29T13:39:57.619Z,2.28
2022-12-29T13:45:15.725Z,1.02
2022-12-29T13:50:20.925Z,1.48
2022-12-29T13:58:48.159Z,1.55
2022-12-29T14:03:54.632Z,1.08
2022-12-29T14:09:06.237Z,1.33
2022-12-29T14:14:21.552Z,1.02
2022-12-29T14:19:32.407Z,1.08
2022-12-29T14:24:46.741Z,1.27
2022-12-29T14:29:49.429Z,1.62
2022-12-29T14:34:57.874Z,1.10
2022-12-29T14:40:25.244Z,0.73
2022-12-29T14:45:30.891Z,1.58
2022-12-29T14:50:43.034Z,1.08
2022-12-29T14:55:52.818Z,1.02
2022-12-29T15:00:54.381Z,1.45
2022-12-29T15:06:09.804Z,0.90
2022-12-29T15:11:44.377Z,0.85
2022-12-29T15:16:45.592Z,1.50
2022-12-29T15:21:47.466Z,1.80
2022-12-29T15:26:52.161Z,0.93
2022-12-29T15:31:52.965Z,2.67
2022-12-29T15:36:53.825Z,7.62
2022-12-29T15:42:00.164Z,1.95
2022-12-29T15:47:16.987Z,1.25
2022-12-29T15:52:20.738Z,2.15
2022-12-29T15:57:30.605Z,2.15
2022-12-29T16:02:31.942Z,2.22
2022-12-29T16:07:41.544Z,2.03
2022-12-29T16:12:43.191Z,1.80
2022-12-29T16:17:48.993Z,1.80
2022-12-29T16:22:55.442Z,1.05
2022-12-29T16:27:56.228Z,2.22
2022-12-29T16:33:05.983Z,1.37
2022-12-29T16:38:18.657Z,2.42
2022-12-29T16:43:33.212Z,3.70
2022-12-29T16:48:46.052Z,1.40
2022-12-29T16:53:52.346Z,1.30
2022-12-29T16:59:44.409Z,1.42
2022-12-29T17:04:48.597Z,1.95
2022-12-29T17:09:56.391Z,2.20
2022-12-29T17:15:01.296Z,3.97
2022-12-29T17:20:05.874Z,4.70
2022-12-29T17:25:12.169Z,3.70
2022-12-29T17:30:16.426Z,4.05
2022-12-29T17:35:19.318Z,5.40
2022-12-29T17:40:32.608Z,4.22
2022-12-29T17:50:35.318Z,1.70
2022-12-29T17:55:38.305Z,2.37
2022-12-29T18:00:40.089Z,1.30
2022-12-29T18:05:41.003Z,7.30
2022-12-29T18:10:42.399Z,3.08
2022-12-29T18:15:43.220Z,1.70
2022-12-29T18:20:45.846Z,1.87
2022-12-29T18:25:52.690Z,1.70
2022-12-29T18:30:56.159Z,2.67
2022-12-29T18:36:00.235Z,4.05
2022-12-29T18:41:01.314Z,3.10
2022-12-29T18:46:02.078Z,3.25
2022-12-29T18:51:03.774Z,4.93
2022-12-29T18:56:06.730Z,5.62
2022-12-29T19:01:27.039Z,2.35
2022-12-29T19:06:28.169Z,3.50
2022-12-29T19:11:29.080Z,3.75
2022-12-29T19:16:29.984Z,2.35
2022-12-29T19:21:30.814Z,3.42
2022-12-29T19:26:35.611Z,3.83
2022-12-29T19:31:37.747Z,3.30
2022-12-29T19:36:38.498Z,2.47
2022-12-29T19:41:39.360Z,2.90
2022-12-29T19:46:40.224Z,2.75
2022-12-29T19:51:41.481Z,3.10
2022-12-29T19:56:43.498Z,2.40
2022-12-29T20:01:44.716Z,12.63
2022-12-29T20:06:45.713Z,18.67
2022-12-29T20:11:46.526Z,5.50
2022-12-29T20:17:09.508Z,4.80
2022-12-29T20:22:12.207Z,3.87
2022-12-29T20:27:13.886Z,3.80
2022-12-29T20:32:18.954Z,2.72
2022-12-29T20:37:20.794Z,2.90
2022-12-29T20:42:21.551Z,2.60
2022-12-29T20:47:22.351Z,2.67
2022-12-29T20:52:23.101Z,3.58
2022-12-29T20:57:24.179Z,2.62
2022-12-29T21:02:25.273Z,4.25
2022-12-29T21:07:26.200Z,5.22
2022-12-29T21:12:26.955Z,3.30
2022-12-29T21:17:27.706Z,2.47
2022-12-29T21:22:29.535Z,3.12
2022-12-29T21:27:32.682Z,2.97
2022-12-29T21:32:33.451Z,1.92
2022-12-29T21:37:35.257Z,2.67
2022-12-29T21:42:36.012Z,2.30
2022-12-29T21:47:55.679Z,2.80
2022-12-29T21:52:56.486Z,2.05
2022-12-29T21:58:16.053Z,2.47
2022-12-29T22:03:35.704Z,2.75
2022-12-29T22:08:55.732Z,2.55
2022-12-29T22:13:57.365Z,3.40
2022-12-29T22:18:58.157Z,2.70
2022-12-29T22:23:59.907Z,3.80
2022-12-29T22:29:00.775Z,3.17
2022-12-29T22:34:03.545Z,2.72
2022-12-29T22:39:04.344Z,2.03
2022-12-29T22:44:06.069Z,2.67
2022-12-29T22:49:07.174Z,2.25
2022-12-29T22:54:07.953Z,2.25
2022-12-29T22:59:11.329Z,2.45
2022-12-29T23:10:04.628Z,2.55
2022-12-29T23:15:06.200Z,4.03
2022-12-29T23:20:07.785Z,2.83
2022-12-29T23:25:08.983Z,2.50
2022-12-29T23:30:10.211Z,2.10
2022-12-29T23:35:11.017Z,4.03
2022-12-29T23:40:12.235Z,3.47
2022-12-29T23:45:13.046Z,2.58
2022-12-29T23:50:13.929Z,3.20
2022-12-29T23:55:14.909Z,7.65
